Time;durP1;ratioP1;P1;durP2;ratioP2;P2;SDS_P1;SDS_P2;PMS_P1;PMS_P2;Temp;Humidity;BMP_temperature;BMP_pressure;BME280_temperature;BME280_humidity;BME280_pressure;Samples;Min_cycle;Max_cycle;Signal;HPM_P1;HPM_P2
2021/11/13 00:00:46;;;;;;;60.28;29.90;;;6.70;98.40;;;;;;5053369;28;20047;-63
2021/11/13 00:03:12;;;;;;;62.38;29.88;;;6.70;98.70;;;;;;5062254;28;20488;-63
2021/11/13 00:05:42;;;;;;;54.63;27.88;;;6.70;98.50;;;;;;5073670;28;20032;-63
2021/11/13 00:08:08;;;;;;;56.05;28.30;;;6.70;98.50;;;;;;5064219;28;20094;-63
2021/11/13 00:10:33;;;;;;;54.42;27.98;;;6.60;98.50;;;;;;5069435;28;20029;-63
2021/11/13 00:13:01;;;;;;;58.80;26.73;;;6.60;98.50;;;;;;5065449;28;20389;-63
2021/11/13 00:15:28;;;;;;;55.95;27.25;;;6.60;98.50;;;;;;5067927;28;20481;-63
2021/11/13 00:17:54;;;;;;;57.28;26.77;;;6.70;98.60;;;;;;5066315;28;20033;-62
2021/11/13 00:20:21;;;;;;;52.80;26.88;;;6.60;98.50;;;;;;5066201;28;20040;-62
2021/11/13 00:22:47;;;;;;;58.15;29.08;;;6.60;98.50;;;;;;5066878;28;20063;-62
2021/11/13 00:25:13;;;;;;;51.03;27.98;;;6.60;98.50;;;;;;5052995;28;20036;-62
2021/11/13 00:27:39;;;;;;;58.38;28.25;;;6.60;98.50;;;;;;5057412;28;20029;-62
2021/11/13 00:30:06;;;;;;;53.35;28.42;;;6.60;98.60;;;;;;5072796;28;20024;-62
2021/11/13 00:32:32;;;;;;;55.55;27.15;;;6.60;98.60;;;;;;5071913;28;20020;-62
2021/11/13 00:34:57;;;;;;;53.83;27.48;;;6.70;98.60;;;;;;5066372;28;20049;-63
2021/11/13 00:37:23;;;;;;;58.65;27.58;;;6.70;98.60;;;;;;5054658;28;20033;-63
2021/11/13 00:39:49;;;;;;;51.60;26.35;;;6.60;98.60;;;;;;5072982;28;20028;-63
2021/11/13 00:42:15;;;;;;;53.83;26.58;;;6.60;98.60;;;;;;5063532;28;20052;-63
2021/11/13 00:44:41;;;;;;;52.67;26.83;;;6.70;98.60;;;;;;5072668;28;20020;-63
2021/11/13 00:47:07;;;;;;;56.60;28.15;;;6.60;98.60;;;;;;5066298;28;20021;-63
2021/11/13 00:49:32;;;;;;;53.40;27.08;;;6.70;98.60;;;;;;5053054;28;20477;-63
2021/11/13 00:51:58;;;;;;;54.83;27.30;;;6.70;98.60;;;;;;5052612;28;20029;-63
2021/11/13 00:54:24;;;;;;;55.13;28.13;;;6.60;98.50;;;;;;5062596;28;20051;-62
2021/11/13 00:56:49;;;;;;;52.45;26.48;;;6.60;98.60;;;;;;5072007;28;20052;-63
2021/11/13 00:59:16;;;;;;;52.58;26.55;;;6.70;98.60;;;;;;5053213;28;20029;-63
2021/11/13 01:01:42;;;;;;;51.28;24.77;;;6.70;98.50;;;;;;5052012;28;20023;-63
2021/11/13 01:04:08;;;;;;;50.60;26.33;;;6.70;98.50;;;;;;5064375;28;20041;-63
2021/11/13 01:06:34;;;;;;;52.53;26.25;;;6.60;98.50;;;;;;5051862;28;20033;-63
2021/11/13 01:08:59;;;;;;;50.22;26.02;;;6.70;98.50;;;;;;5067712;28;20384;-63
2021/11/13 01:11:27;;;;;;;50.13;25.98;;;6.70;98.50;;;;;;5056927;28;20397;-63
2021/11/13 01:13:53;;;;;;;47.13;25.08;;;6.70;98.50;;;;;;5065658;28;20074;-63
2021/11/13 01:16:19;;;;;;;52.00;26.75;;;6.70;98.50;;;;;;5072136;28;20040;-63
2021/11/13 01:18:46;;;;;;;54.50;26.98;;;6.70;98.60;;;;;;5057234;28;20033;-63
2021/11/13 01:21:12;;;;;;;47.58;25.55;;;6.70;98.60;;;;;;5065784;28;20437;-62
2021/11/13 01:23:38;;;;;;;51.08;25.73;;;6.70;98.50;;;;;;5069300;28;20122;-62
2021/11/13 01:26:05;;;;;;;57.60;26.55;;;6.70;98.60;;;;;;5071384;28;20405;-63
2021/11/13 01:28:30;;;;;;;52.17;25.88;;;6.70;98.60;;;;;;5069388;28;20025;-63
2021/11/13 01:30:56;;;;;;;56.50;27.45;;;6.70;98.60;;;;;;5055517;28;20397;-63
2021/11/13 01:33:22;;;;;;;52.63;26.80;;;6.70;98.60;;;;;;5061629;28;20082;-63
2021/11/13 01:35:49;;;;;;;55.55;29.17;;;6.80;98.60;;;;;;5059643;28;20088;-63
2021/11/13 01:38:15;;;;;;;49.22;24.83;;;6.70;98.50;;;;;;5050949;28;20024;-63
2021/11/13 01:40:40;;;;;;;55.17;27.00;;;6.70;98.70;;;;;;5051672;28;20115;-63
2021/11/13 01:43:06;;;;;;;57.17;27.75;;;6.80;98.50;;;;;;5061566;28;20143;-63
2021/11/13 01:45:32;;;;;;;51.30;26.13;;;6.70;98.50;;;;;;5052033;28;20029;-63
2021/11/13 01:47:57;;;;;;;57.33;27.38;;;6.80;98.60;;;;;;5056529;28;20036;-63
2021/11/13 01:50:39;;;;;;;48.10;24.60;;;6.80;98.50;;;;;;5069942;28;20024;-63
2021/11/13 01:53:05;;;;;;;51.38;25.33;;;6.80;98.50;;;;;;5058612;28;20108;-63
2021/11/13 01:55:35;;;;;;;50.95;26.10;;;6.80;98.50;;;;;;5071055;28;20610;-63
2021/11/13 01:58:02;;;;;;;46.55;24.40;;;6.80;98.50;;;;;;5056496;28;20040;-63
2021/11/13 02:00:31;;;;;;;55.25;27.20;;;6.80;98.50;;;;;;5050172;28;20497;-63
2021/11/13 02:02:57;;;;;;;52.42;25.92;;;6.80;98.50;;;;;;5057295;28;20725;-64
2021/11/13 02:05:22;;;;;;;48.03;25.52;;;6.80;98.40;;;;;;5071349;28;20040;-64
2021/11/13 02:07:48;;;;;;;49.78;26.25;;;6.80;98.50;;;;;;5063063;28;20083;-64
2021/11/13 02:10:15;;;;;;;50.13;25.60;;;6.80;98.50;;;;;;5061104;28;20477;-64
2021/11/13 02:12:41;;;;;;;52.70;26.00;;;6.90;98.50;;;;;;5064931;28;20056;-64
2021/11/13 02:15:08;;;;;;;49.83;28.30;;;6.80;98.40;;;;;;5052697;28;20067;-63
2021/11/13 02:17:34;;;;;;;50.20;26.67;;;6.80;98.40;;;;;;5051231;28;20032;-63
2021/11/13 02:20:39;;;;;;;50.50;27.33;;;6.90;98.40;;;;;;5051224;28;20079;-63
2021/11/13 02:23:11;;;;;;;52.65;25.30;;;6.80;98.40;;;;;;5017401;28;20559;-63
2021/11/13 02:25:37;;;;;;;51.50;26.42;;;6.80;98.40;;;;;;5065437;28;20033;-63
2021/11/13 02:28:06;;;;;;;52.78;25.15;;;6.80;98.40;;;;;;5069144;28;20108;-63
2021/11/13 02:30:31;;;;;;;49.72;27.58;;;6.80;98.40;;;;;;5069416;28;20131;-63
2021/11/13 02:32:57;;;;;;;53.78;26.55;;;6.80;98.40;;;;;;5070024;28;20108;-64
2021/11/13 02:35:28;;;;;;;54.47;26.38;;;6.80;98.40;;;;;;5075200;28;20063;-64
2021/11/13 02:37:54;;;;;;;54.00;26.75;;;6.80;98.40;;;;;;5078872;28;20029;-63
2021/11/13 02:40:21;;;;;;;50.88;26.38;;;6.80;98.40;;;;;;5055189;28;20090;-62
2021/11/13 02:42:47;;;;;;;55.08;27.27;;;6.80;98.40;;;;;;5060627;28;20526;-62
2021/11/13 02:45:14;;;;;;;47.95;24.63;;;6.90;98.40;;;;;;5068918;28;20385;-62
2021/11/13 02:47:42;;;;;;;49.47;25.60;;;6.90;98.40;;;;;;5061191;28;20024;-63
2021/11/13 02:50:12;;;;;;;44.67;23.02;;;6.90;98.30;;;;;;5091476;28;20103;-63
2021/11/13 02:52:42;;;;;;;50.85;26.00;;;6.90;98.30;;;;;;5082888;28;20032;-62
2021/11/13 02:55:08;;;;;;;49.40;24.35;;;6.90;98.30;;;;;;5074482;28;20114;-63
2021/11/13 02:57:33;;;;;;;49.25;25.95;;;6.90;98.30;;;;;;5072074;28;20036;-63
2021/11/13 02:59:59;;;;;;;49.53;24.08;;;6.90;98.30;;;;;;5057719;28;20082;-63
2021/11/13 03:02:24;;;;;;;48.95;25.15;;;6.90;98.30;;;;;;5052868;28;20085;-63
2021/11/13 03:04:50;;;;;;;52.13;26.40;;;6.90;98.30;;;;;;5058583;28;20027;-63
2021/11/13 03:07:15;;;;;;;45.13;22.88;;;6.80;98.30;;;;;;5074729;28;20099;-62
2021/11/13 03:09:40;;;;;;;45.75;22.38;;;6.80;98.30;;;;;;5071462;28;20029;-63
2021/11/13 03:12:06;;;;;;;47.05;24.33;;;6.80;98.30;;;;;;5061379;28;20461;-63
2021/11/13 03:14:32;;;;;;;46.63;24.10;;;6.90;98.30;;;;;;5072935;28;20086;-63
2021/11/13 03:17:02;;;;;;;50.22;25.23;;;6.90;98.30;;;;;;5073862;28;20519;-63
2021/11/13 03:19:27;;;;;;;47.10;24.00;;;6.90;98.30;;;;;;5072872;28;20404;-63
2021/11/13 03:21:53;;;;;;;47.80;24.90;;;6.90;98.30;;;;;;5074143;28;20036;-63
2021/11/13 03:24:19;;;;;;;48.75;24.67;;;6.90;98.20;;;;;;5072423;28;20431;-63
2021/11/13 03:26:45;;;;;;;47.40;23.55;;;6.90;98.20;;;;;;5059444;28;20036;-63
2021/11/13 03:29:19;;;;;;;47.35;24.98;;;6.90;98.20;;;;;;5054253;28;20021;-62
2021/11/13 03:31:45;;;;;;;46.08;25.85;;;6.80;98.30;;;;;;5057933;28;20033;-62
2021/11/13 03:34:11;;;;;;;46.40;24.05;;;6.80;98.20;;;;;;5073053;28;20029;-63
2021/11/13 03:36:36;;;;;;;50.50;24.70;;;6.80;98.20;;;;;;5073329;28;20764;-63
2021/11/13 03:39:05;;;;;;;44.80;23.45;;;6.90;98.30;;;;;;5064148;28;20021;-62
2021/11/13 03:41:31;;;;;;;47.42;24.48;;;6.80;98.30;;;;;;5054083;28;20041;-62
2021/11/13 03:43:57;;;;;;;41.10;22.52;;;6.80;98.30;;;;;;5053368;28;20036;-62
2021/11/13 03:46:23;;;;;;;42.20;22.92;;;6.80;98.30;;;;;;5053604;28;20124;-62
2021/11/13 03:48:50;;;;;;;44.90;23.33;;;6.80;98.30;;;;;;5053299;28;20607;-62
2021/11/13 03:51:16;;;;;;;43.75;23.10;;;6.90;98.30;;;;;;5064099;28;20028;-62
2021/11/13 03:53:42;;;;;;;43.92;23.17;;;6.90;98.30;;;;;;5058407;28;20029;-62
2021/11/13 03:56:07;;;;;;;44.17;25.52;;;6.90;98.30;;;;;;5062526;28;20077;-62
2021/11/13 03:58:33;;;;;;;44.72;23.92;;;6.90;98.30;;;;;;5057239;28;20519;-62
2021/11/13 04:00:59;;;;;;;44.58;22.40;;;6.90;98.30;;;;;;5072511;28;20503;-62
2021/11/13 04:03:25;;;;;;;50.17;24.35;;;6.90;98.30;;;;;;5071967;28;20500;-62
2021/11/13 04:05:50;;;;;;;50.80;23.50;;;6.80;98.30;;;;;;5073370;28;20107;-62
2021/11/13 04:08:16;;;;;;;43.05;24.00;;;6.90;98.30;;;;;;5070431;28;20079;-62
2021/11/13 04:10:41;;;;;;;46.65;24.23;;;6.90;98.30;;;;;;5053192;28;20082;-62
2021/11/13 04:13:07;;;;;;;49.20;24.33;;;6.90;98.30;;;;;;5060833;28;20516;-63
2021/11/13 04:15:34;;;;;;;46.45;23.48;;;6.90;98.30;;;;;;5053376;28;20097;-63
2021/11/13 04:18:00;;;;;;;42.70;24.27;;;6.90;98.40;;;;;;5052565;28;20029;-63
2021/11/13 04:20:25;;;;;;;46.30;21.92;;;6.90;98.30;;;;;;5065748;28;20087;-62
2021/11/13 04:22:52;;;;;;;47.97;23.63;;;6.90;98.30;;;;;;5064967;28;20481;-62
2021/11/13 04:25:19;;;;;;;39.40;22.52;;;6.90;98.30;;;;;;5053241;28;20060;-62
2021/11/13 04:27:46;;;;;;;45.03;23.25;;;6.90;98.30;;;;;;5059612;28;20033;-63
2021/11/13 04:30:14;;;;;;;42.55;21.83;;;6.90;98.30;;;;;;5053987;28;20029;-63
2021/11/13 04:32:42;;;;;;;40.80;21.15;;;6.90;98.30;;;;;;5052913;28;20021;-63
2021/11/13 04:37:47;;;;;;;43.50;22.10;;;6.90;98.30;;;;;;5071497;28;20051;-63
2021/11/13 04:40:16;;;;;;;48.40;25.05;;;6.90;98.30;;;;;;5065690;28;20059;-63
2021/11/13 04:42:41;;;;;;;41.83;21.92;;;6.90;98.30;;;;;;5072554;28;20477;-63
2021/11/13 04:45:07;;;;;;;44.95;22.67;;;6.90;98.30;;;;;;5070656;28;20048;-63
2021/11/13 04:47:33;;;;;;;44.92;22.67;;;6.90;98.30;;;;;;5072439;28;20028;-63
2021/11/13 04:50:00;;;;;;;47.15;21.85;;;6.90;98.30;;;;;;5071219;28;20025;-63
2021/11/13 04:52:26;;;;;;;42.38;22.50;;;6.90;98.40;;;;;;5072291;28;20032;-62
2021/11/13 04:54:51;;;;;;;44.40;22.20;;;6.90;98.40;;;;;;5055988;28;20459;-63
2021/11/13 04:57:17;;;;;;;44.47;23.75;;;6.90;98.30;;;;;;5052356;28;20494;-63
2021/11/13 04:59:42;;;;;;;41.72;22.30;;;6.90;98.30;;;;;;5065418;28;20024;-62
2021/11/13 05:02:08;;;;;;;43.20;23.45;;;6.90;98.30;;;;;;5071144;28;20080;-62
2021/11/13 05:04:34;;;;;;;39.38;20.90;;;7.00;98.40;;;;;;5069859;28;20024;-62
2021/11/13 05:06:59;;;;;;;38.85;22.13;;;7.00;98.30;;;;;;5065439;28;20112;-62
2021/11/13 05:09:25;;;;;;;37.40;22.40;;;7.00;98.30;;;;;;5052257;28;20043;-62
2021/11/13 05:11:50;;;;;;;40.13;21.65;;;7.00;98.30;;;;;;5051625;28;20032;-62
2021/11/13 05:14:16;;;;;;;42.80;22.75;;;7.00;98.40;;;;;;5052571;28;20017;-62
2021/11/13 05:16:41;;;;;;;40.03;21.63;;;7.00;98.30;;;;;;5052103;28;20037;-63
2021/11/13 05:19:08;;;;;;;42.53;23.90;;;7.00;98.40;;;;;;5060795;28;20086;-63
2021/11/13 05:21:35;;;;;;;38.90;21.35;;;7.00;98.30;;;;;;5072048;28;20036;-63
2021/11/13 05:24:00;;;;;;;43.47;22.77;;;7.00;98.30;;;;;;5063321;28;20029;-62
2021/11/13 05:26:26;;;;;;;43.75;21.52;;;7.00;98.30;;;;;;5053346;28;20033;-63
2021/11/13 05:28:51;;;;;;;41.90;21.55;;;7.00;98.30;;;;;;5068549;28;20070;-63
2021/11/13 05:31:17;;;;;;;43.15;21.90;;;7.10;98.30;;;;;;5070867;28;20055;-63
2021/11/13 05:33:43;;;;;;;45.75;22.60;;;7.00;98.30;;;;;;5064864;28;20409;-63
2021/11/13 05:36:09;;;;;;;40.33;22.42;;;7.00;98.30;;;;;;5051734;28;20608;-63
2021/11/13 05:38:34;;;;;;;38.50;20.77;;;7.00;98.30;;;;;;5055375;28;20029;-63
2021/11/13 05:41:00;;;;;;;37.28;20.50;;;7.00;98.30;;;;;;5060620;28;20037;-63
2021/11/13 05:43:25;;;;;;;43.25;22.65;;;7.00;98.30;;;;;;5069358;28;20031;-63
2021/11/13 05:45:51;;;;;;;42.80;21.67;;;7.10;98.30;;;;;;5070356;28;20302;-63
2021/11/13 05:48:17;;;;;;;40.00;21.17;;;7.00;98.30;;;;;;5068835;28;20029;-63
2021/11/13 05:50:44;;;;;;;43.28;23.05;;;7.00;98.30;;;;;;5054220;28;20025;-63
2021/11/13 05:53:10;;;;;;;44.40;22.42;;;7.10;98.30;;;;;;5052595;28;20098;-63
2021/11/13 05:55:36;;;;;;;40.95;21.20;;;7.10;98.30;;;;;;5051243;28;20156;-63
2021/11/13 05:58:01;;;;;;;39.50;21.45;;;7.10;98.30;;;;;;5050692;28;20041;-63
2021/11/13 06:00:28;;;;;;;42.35;23.13;;;7.00;98.30;;;;;;5067671;28;20381;-63
2021/11/13 06:02:54;;;;;;;42.20;21.13;;;7.00;98.20;;;;;;5057984;28;20094;-63
2021/11/13 06:05:20;;;;;;;42.65;21.33;;;7.10;98.20;;;;;;5060468;28;20017;-63
2021/11/13 06:07:46;;;;;;;40.47;21.55;;;7.10;98.30;;;;;;5049545;28;20055;-63
2021/11/13 06:10:14;;;;;;;41.00;20.65;;;7.00;98.20;;;;;;5061090;28;20526;-63
2021/11/13 06:12:40;;;;;;;36.42;19.38;;;7.10;98.20;;;;;;5058346;28;20128;-63
2021/11/13 06:15:07;;;;;;;39.05;21.65;;;7.00;98.20;;;;;;5055453;28;20025;-63
2021/11/13 06:17:32;;;;;;;42.50;23.35;;;7.00;98.20;;;;;;5055189;28;20060;-63
2021/11/13 06:19:58;;;;;;;40.95;21.38;;;7.10;98.20;;;;;;5070253;28;20101;-63
2021/11/13 06:22:24;;;;;;;39.20;20.83;;;7.10;98.20;;;;;;5075154;28;20032;-63
2021/11/13 06:24:50;;;;;;;39.55;20.75;;;7.10;98.30;;;;;;5074286;28;20074;-63
2021/11/13 06:27:16;;;;;;;38.63;19.05;;;7.00;98.20;;;;;;5090006;28;20097;-63
2021/11/13 06:29:42;;;;;;;39.10;19.73;;;7.00;98.20;;;;;;5074047;28;20035;-63
2021/11/13 06:32:08;;;;;;;42.67;20.98;;;7.10;98.30;;;;;;5075239;28;20392;-63
2021/11/13 06:34:34;;;;;;;34.08;20.50;;;7.10;98.30;;;;;;5061827;28;20112;-63
2021/11/13 06:36:59;;;;;;;44.35;22.42;;;7.10;98.20;;;;;;5054535;28;20037;-63
2021/11/13 06:39:25;;;;;;;39.50;21.75;;;7.10;98.20;;;;;;5060574;28;20056;-63
2021/11/13 06:41:50;;;;;;;37.88;21.00;;;7.10;98.20;;;;;;5057723;28;20036;-64
2021/11/13 06:44:16;;;;;;;43.80;22.20;;;7.10;98.20;;;;;;5062863;28;20056;-63
2021/11/13 06:46:41;;;;;;;42.78;20.08;;;7.00;98.20;;;;;;5056933;28;20028;-62
2021/11/13 06:49:07;;;;;;;37.80;19.25;;;7.10;98.20;;;;;;5069933;28;20024;-62
2021/11/13 06:51:32;;;;;;;41.40;21.90;;;7.10;98.20;;;;;;5054505;28;20051;-62
2021/11/13 06:53:59;;;;;;;35.65;19.33;;;7.10;98.20;;;;;;5061409;28;20028;-62
2021/11/13 06:56:25;;;;;;;38.90;20.83;;;7.10;98.20;;;;;;5057729;28;20306;-63
2021/11/13 06:58:50;;;;;;;37.22;20.05;;;7.10;98.20;;;;;;5059619;28;20494;-62
2021/11/13 07:01:16;;;;;;;38.20;21.17;;;7.10;98.20;;;;;;5063971;28;20034;-62
2021/11/13 07:03:42;;;;;;;35.13;19.25;;;7.10;98.20;;;;;;5057827;28;20491;-63
2021/11/13 07:06:07;;;;;;;40.55;20.88;;;7.10;98.20;;;;;;5069853;28;20727;-62
2021/11/13 07:08:33;;;;;;;36.95;18.27;;;7.20;98.20;;;;;;5053704;28;20056;-63
2021/11/13 07:10:58;;;;;;;37.05;19.90;;;7.20;98.20;;;;;;5070432;28;20020;-63
2021/11/13 07:13:25;;;;;;;36.63;20.23;;;7.20;98.10;;;;;;5070893;28;20042;-63
2021/11/13 07:15:52;;;;;;;35.03;17.95;;;7.20;98.20;;;;;;5055050;28;20114;-63
2021/11/13 07:18:18;;;;;;;39.55;21.25;;;7.20;98.40;;;;;;5037077;28;20032;-63
2021/11/13 07:20:55;;;;;;;36.58;20.60;;;7.30;98.20;;;;;;5054044;28;20554;-63
2021/11/13 07:23:21;;;;;;;34.97;18.25;;;7.30;98.40;;;;;;5061502;28;20078;-63
2021/11/13 07:25:47;;;;;;;36.88;18.25;;;7.30;98.20;;;;;;5053640;28;20566;-62
2021/11/13 07:28:15;;;;;;;37.08;18.55;;;7.30;98.20;;;;;;5054155;28;20029;-62
2021/11/13 07:30:42;;;;;;;36.63;18.98;;;7.30;98.20;;;;;;5060550;28;20586;-62
2021/11/13 07:33:09;;;;;;;34.83;18.77;;;7.30;98.20;;;;;;5072218;28;20073;-63
2021/11/13 07:35:39;;;;;;;35.70;18.83;;;7.30;98.20;;;;;;5067742;28;20534;-63
2021/11/13 07:38:05;;;;;;;36.63;20.33;;;7.40;98.20;;;;;;5060796;28;20484;-64
2021/11/13 07:40:31;;;;;;;38.28;19.00;;;7.40;98.20;;;;;;5060438;28;20040;-65
2021/11/13 07:42:57;;;;;;;37.78;20.05;;;7.50;98.10;;;;;;5058672;28;20036;-64
2021/11/13 07:45:23;;;;;;;33.67;20.63;;;7.50;98.20;;;;;;5063416;28;20098;-64
2021/11/13 07:47:49;;;;;;;37.42;18.83;;;7.50;98.10;;;;;;5064013;28;20029;-65
2021/11/13 07:50:16;;;;;;;38.53;19.25;;;7.50;98.10;;;;;;5054495;28;20032;-64
2021/11/13 07:52:42;;;;;;;34.10;18.52;;;7.50;98.10;;;;;;5065323;28;20033;-63
2021/11/13 07:55:09;;;;;;;39.88;20.83;;;7.60;98.10;;;;;;5065866;28;20041;-64
2021/11/13 07:57:35;;;;;;;34.95;17.85;;;7.60;98.00;;;;;;5052769;28;20055;-65
2021/11/13 08:00:03;;;;;;;35.55;18.88;;;7.60;98.00;;;;;;5073532;28;20020;-64
2021/11/13 08:02:29;;;;;;;35.42;20.95;;;7.60;98.00;;;;;;5052780;28;20043;-64
2021/11/13 08:04:54;;;;;;;38.38;19.60;;;7.70;98.00;;;;;;5058995;28;20017;-64
2021/11/13 08:07:20;;;;;;;37.25;21.30;;;7.70;98.00;;;;;;5057996;28;20021;-64
2021/11/13 08:09:45;;;;;;;34.20;19.10;;;7.70;97.90;;;;;;5052398;28;20025;-64
2021/11/13 08:12:11;;;;;;;35.08;18.58;;;7.70;97.90;;;;;;5057195;28;20515;-64
2021/11/13 08:14:36;;;;;;;37.03;19.77;;;7.80;97.90;;;;;;5055795;28;20037;-63
2021/11/13 08:17:02;;;;;;;34.63;17.48;;;7.80;97.90;;;;;;5065371;28;20511;-64
2021/11/13 08:19:28;;;;;;;34.05;18.77;;;7.80;97.80;;;;;;5067331;28;20040;-63
2021/11/13 08:21:53;;;;;;;31.58;18.02;;;7.80;97.80;;;;;;5051408;28;20029;-63
2021/11/13 08:24:20;;;;;;;37.72;19.83;;;7.90;97.80;;;;;;5055787;28;20021;-63
2021/11/13 08:26:46;;;;;;;33.30;18.25;;;7.90;97.80;;;;;;5054383;28;20029;-64
2021/11/13 08:29:12;;;;;;;37.92;20.35;;;7.90;97.80;;;;;;5058073;28;20032;-64
2021/11/13 08:31:37;;;;;;;32.33;18.45;;;7.90;97.80;;;;;;5054572;28;20090;-64
2021/11/13 08:34:04;;;;;;;34.60;18.65;;;7.90;97.80;;;;;;5061506;28;20044;-63
2021/11/13 08:36:29;;;;;;;31.40;17.85;;;8.00;97.70;;;;;;5065707;28;20081;-64
2021/11/13 08:38:55;;;;;;;32.72;18.65;;;8.00;97.70;;;;;;5058892;28;20017;-64
2021/11/13 08:41:20;;;;;;;34.67;18.45;;;8.10;97.70;;;;;;5062869;28;20024;-64
2021/11/13 08:43:48;;;;;;;33.63;18.40;;;8.00;97.60;;;;;;5054961;28;20062;-64
2021/11/13 08:46:13;;;;;;;31.70;17.73;;;8.10;97.60;;;;;;5055508;28;20560;-64
2021/11/13 08:48:39;;;;;;;32.20;17.58;;;8.10;97.60;;;;;;5054969;28;20046;-64
2021/11/13 08:51:05;;;;;;;33.85;18.13;;;8.10;97.60;;;;;;5052610;28;20025;-64
2021/11/13 08:53:30;;;;;;;31.83;17.45;;;8.20;97.60;;;;;;5065380;28;20074;-64
2021/11/13 08:55:56;;;;;;;32.35;18.67;;;8.20;97.60;;;;;;5068870;28;20385;-64
2021/11/13 08:58:21;;;;;;;33.00;17.88;;;8.20;97.50;;;;;;5059064;28;20499;-64
2021/11/13 09:00:59;;;;;;;38.00;18.83;;;8.30;97.60;;;;;;5057580;28;20033;-64
2021/11/13 09:03:30;;;;;;;31.42;17.95;;;8.30;97.50;;;;;;5065807;28;20571;-64
2021/11/13 09:05:56;;;;;;;31.52;17.17;;;8.30;97.50;;;;;;5061311;28;20035;-65
2021/11/13 09:08:24;;;;;;;29.75;17.20;;;8.40;97.50;;;;;;5061375;28;20039;-65
2021/11/13 09:10:50;;;;;;;32.53;17.63;;;8.40;97.50;;;;;;5057884;28;20017;-65
2021/11/13 09:13:20;;;;;;;31.23;16.48;;;8.40;97.40;;;;;;5053350;28;20025;-63
2021/11/13 09:15:47;;;;;;;30.95;16.30;;;8.40;97.30;;;;;;5050382;28;20087;-63
2021/11/13 09:18:12;;;;;;;30.30;18.98;;;8.40;97.30;;;;;;5058977;28;20029;-63
2021/11/13 09:20:40;;;;;;;31.15;17.15;;;8.40;97.20;;;;;;5050248;28;20028;-63
2021/11/13 09:23:06;;;;;;;32.50;18.75;;;8.40;97.10;;;;;;5055236;28;20544;-64
2021/11/13 09:25:32;;;;;;;34.47;17.25;;;8.50;97.20;;;;;;5050512;28;20033;-64
2021/11/13 09:27:59;;;;;;;30.30;16.60;;;8.50;97.10;;;;;;5059061;28;20028;-63
2021/11/13 09:30:28;;;;;;;32.33;17.45;;;8.50;97.20;;;;;;5053012;28;20037;-64
2021/11/13 09:32:54;;;;;;;28.88;16.42;;;8.50;97.10;;;;;;5059623;28;20075;-64
2021/11/13 09:35:21;;;;;;;31.17;16.75;;;8.60;97.10;;;;;;5053640;28;20456;-63
2021/11/13 09:37:47;;;;;;;30.58;17.40;;;8.60;97.10;;;;;;5068224;28;20029;-64
2021/11/13 09:40:17;;;;;;;32.40;17.75;;;8.60;97.10;;;;;;5054928;28;20051;-64
2021/11/13 09:42:45;;;;;;;32.08;17.35;;;8.70;97.10;;;;;;5072410;28;20024;-64
2021/11/13 09:45:11;;;;;;;33.70;18.33;;;8.70;97.10;;;;;;5052700;28;20055;-63
2021/11/13 09:47:37;;;;;;;30.63;16.88;;;8.70;97.00;;;;;;5051072;28;20025;-64
2021/11/13 09:50:05;;;;;;;28.45;16.50;;;8.70;96.90;;;;;;5055031;28;20020;-64
2021/11/13 09:52:31;;;;;;;29.70;16.83;;;8.80;96.90;;;;;;5062867;28;20033;-64
2021/11/13 09:54:59;;;;;;;28.83;16.30;;;8.80;96.90;;;;;;5064279;28;20652;-64
2021/11/13 09:57:25;;;;;;;25.70;15.93;;;8.80;96.90;;;;;;5071532;28;20068;-64
2021/11/13 09:59:50;;;;;;;26.52;16.30;;;8.80;96.90;;;;;;5053852;28;20021;-64
2021/11/13 10:02:16;;;;;;;30.48;15.68;;;8.90;96.80;;;;;;5076837;28;20039;-64
2021/11/13 10:04:45;;;;;;;30.98;16.40;;;8.90;96.80;;;;;;5057780;28;20075;-64
2021/11/13 10:07:11;;;;;;;27.00;15.85;;;9.00;96.80;;;;;;5051324;28;20025;-64
2021/11/13 10:09:37;;;;;;;28.58;15.90;;;9.00;96.70;;;;;;5071457;28;20025;-64
2021/11/13 10:12:03;;;;;;;29.10;16.90;;;9.00;96.70;;;;;;5054692;28;20090;-64
2021/11/13 10:14:36;;;;;;;30.00;16.52;;;9.10;96.70;;;;;;5048104;28;20548;-64
2021/11/13 10:17:15;;;;;;;29.95;16.35;;;9.10;96.60;;;;;;5056998;28;20029;-64
2021/11/13 10:19:41;;;;;;;28.65;15.98;;;9.20;96.70;;;;;;5051138;28;20029;-65
2021/11/13 10:22:06;;;;;;;29.92;15.43;;;9.20;96.60;;;;;;5068404;28;20043;-65
2021/11/13 10:24:32;;;;;;;27.48;15.88;;;9.20;96.60;;;;;;5054144;28;20159;-64
2021/11/13 10:27:02;;;;;;;24.00;13.95;;;9.30;96.60;;;;;;5059893;28;20093;-63
2021/11/13 10:29:30;;;;;;;27.42;16.60;;;9.40;96.60;;;;;;5060369;28;20392;-64
2021/11/13 10:32:03;;;;;;;25.27;15.38;;;9.40;96.50;;;;;;5050308;28;20021;-64
2021/11/13 10:34:36;;;;;;;30.13;16.00;;;9.40;96.40;;;;;;5060328;28;20032;-64
2021/11/13 10:37:07;;;;;;;24.17;15.13;;;9.40;96.40;;;;;;5057003;28;20064;-64
2021/11/13 10:39:36;;;;;;;24.80;14.88;;;9.50;96.30;;;;;;5052232;28;20040;-64
2021/11/13 10:42:11;;;;;;;27.88;15.60;;;9.50;96.30;;;;;;5058801;28;20021;-64
2021/11/13 10:44:45;;;;;;;27.10;15.20;;;9.50;96.20;;;;;;5056430;28;20033;-64
2021/11/13 10:47:33;;;;;;;27.37;15.43;;;9.50;96.30;;;;;;5059066;28;20112;-64
2021/11/13 10:50:16;;;;;;;30.75;16.23;;;9.60;96.20;;;;;;5054282;28;20076;-64
2021/11/13 10:52:56;;;;;;;25.48;15.27;;;9.60;96.20;;;;;;5057134;28;20075;-65
2021/11/13 10:55:22;;;;;;;25.52;13.95;;;9.60;96.20;;;;;;5051764;28;20449;-63
2021/11/13 10:57:47;;;;;;;26.77;14.80;;;9.70;96.20;;;;;;5063307;28;20113;-64
2021/11/13 11:00:16;;;;;;;25.85;15.07;;;9.70;96.20;;;;;;5061651;28;20036;-64
2021/11/13 11:02:42;;;;;;;27.83;14.80;;;9.70;96.10;;;;;;5058999;28;20033;-64
2021/11/13 11:05:15;;;;;;;23.70;14.45;;;9.80;96.10;;;;;;5062735;28;20091;-63
2021/11/13 11:07:41;;;;;;;23.85;14.90;;;9.80;96.00;;;;;;5058046;28;20083;-66
2021/11/13 11:10:15;;;;;;;23.90;14.88;;;9.80;96.00;;;;;;5045689;28;20031;-64
2021/11/13 11:12:41;;;;;;;26.50;15.27;;;9.90;96.00;;;;;;5053693;28;20057;-64
2021/11/13 11:15:14;;;;;;;30.05;15.77;;;10.00;96.00;;;;;;5053818;28;20078;-64
2021/11/13 11:17:42;;;;;;;25.92;15.10;;;10.00;95.90;;;;;;5060875;28;20039;-65
2021/11/13 11:20:14;;;;;;;28.13;15.85;;;10.10;95.80;;;;;;5062074;28;20021;-63
2021/11/13 11:22:41;;;;;;;27.55;15.95;;;10.10;95.70;;;;;;5066038;28;20120;-64
2021/11/13 11:25:08;;;;;;;28.27;15.75;;;10.10;95.70;;;;;;5061212;28;20048;-64
2021/11/13 11:27:37;;;;;;;25.52;14.95;;;10.20;95.60;;;;;;5069212;28;20024;-64
2021/11/13 11:30:07;;;;;;;26.52;14.63;;;10.20;95.60;;;;;;5063774;28;20095;-64
2021/11/13 11:32:43;;;;;;;27.77;16.23;;;10.20;95.50;;;;;;5055446;28;20029;-64
2021/11/13 11:35:16;;;;;;;24.75;15.90;;;10.30;95.40;;;;;;5054417;28;20024;-63
2021/11/13 11:38:11;;;;;;;28.70;16.83;;;10.30;95.40;;;;;;5060532;28;20048;-63
2021/11/13 11:40:40;;;;;;;21.55;13.77;;;10.30;95.50;;;;;;5058337;28;20041;-63
2021/11/13 11:43:06;;;;;;;26.30;15.40;;;10.30;95.40;;;;;;5054131;28;20040;-63
2021/11/13 11:45:37;;;;;;;26.70;14.98;;;10.40;95.40;;;;;;5053853;28;20029;-63
2021/11/13 11:48:15;;;;;;;25.65;15.25;;;10.40;95.40;;;;;;5053070;28;20024;-63
2021/11/13 11:50:43;;;;;;;26.08;15.75;;;10.40;95.30;;;;;;5054800;28;20658;-63
2021/11/13 11:53:11;;;;;;;23.50;14.00;;;10.40;95.30;;;;;;5060208;28;20029;-64
2021/11/13 11:55:41;;;;;;;23.70;13.52;;;10.40;95.30;;;;;;5058881;28;20037;-64
2021/11/13 11:58:11;;;;;;;23.65;13.65;;;10.40;95.30;;;;;;5066893;28;20115;-64
2021/11/13 12:00:38;;;;;;;22.92;14.32;;;10.40;95.30;;;;;;5056289;28;20411;-63
2021/11/13 12:03:05;;;;;;;21.63;14.95;;;10.50;95.20;;;;;;5051841;28;20044;-63
2021/11/13 12:05:34;;;;;;;22.80;14.32;;;10.50;95.20;;;;;;5061560;28;20047;-63
2021/11/13 12:08:21;;;;;;;22.50;13.60;;;10.50;95.20;;;;;;5055648;28;20134;-64
2021/11/13 12:10:47;;;;;;;19.48;13.52;;;10.50;95.30;;;;;;5085886;28;20123;-64
2021/11/13 12:13:30;;;;;;;22.30;13.15;;;10.50;95.30;;;;;;5067090;28;20146;-64
2021/11/13 12:16:01;;;;;;;18.92;12.45;;;10.60;95.20;;;;;;5056829;28;20040;-64
2021/11/13 12:18:31;;;;;;;20.75;12.60;;;10.60;95.10;;;;;;5052267;28;20029;-64
2021/11/13 12:21:03;;;;;;;20.38;13.10;;;10.60;95.10;;;;;;5060421;28;20028;-65
2021/11/13 12:23:39;;;;;;;20.27;12.27;;;10.60;95.00;;;;;;5052822;28;20556;-64
2021/11/13 12:26:13;;;;;;;20.92;12.55;;;10.60;95.00;;;;;;5051989;28;20029;-64
2021/11/13 12:28:45;;;;;;;17.77;11.38;;;10.70;94.90;;;;;;5055728;28;20028;-63
2021/11/13 12:31:16;;;;;;;24.40;13.77;;;10.70;94.90;;;;;;5052039;28;20079;-64
2021/11/13 12:33:48;;;;;;;20.52;12.77;;;10.60;94.90;;;;;;5060196;28;20028;-63
2021/11/13 12:36:18;;;;;;;18.17;11.98;;;10.60;94.90;;;;;;5067981;28;20040;-63
2021/11/13 12:38:57;;;;;;;21.38;12.77;;;10.60;94.90;;;;;;5064412;28;20029;-63